PKMJ - PKWA

Guest
Details From PKMJ - MARSHALL ISLANDS INTL
To PKWA - BUCHOLZ AAF
Flight Number -
Tags generated
Created
Modified
Stats Distance 233 nm / 432 km
Max Altitude 18,900 ft / 5,761 m
Waypoints 4
Social Downloads 5
Likes 0
Share VATSIM

Download

Looking for another format? Having issues loading an existing format? Contact us
Advertisement - Login to hide

Notes

Basic altitude profile: - Ascent Rate: 2500ft/min - Ascent Speed: 250kts - Cruise Altitude: 35000ft - Cruise Speed: 420kts - Descent Rate: 1500ft/min - Descent Speed: 250kts

Route

PKMJ OREEO R584 NDJNB PKWA

ID Type Via Altitude Latitude Longitude Leg Dist Tot Dist Heading (true) Name
O PKMJ APT - 0 ft / 0 m 7.06476˚ 171.27202˚ - 0 nm - MARSHALL ISLANDS INTL
OREEO FIX - 18,900 ft / 5,761 m 7.44806˚ 170.46917˚ 53 nm 53 nm 296° / 296° -
NDJNB FIX R584 (AWY-HI) 18,000 ft / 5,486 m 8.72087˚ 167.72776˚ 180 nm 233 nm 295° / 295° -
O PKWA APT - 0 ft / 0 m 8.72012˚ 167.73166˚ 0 nm 233 nm 101° / 101° BUCHOLZ AAF

Altitude Profile

Weather

Temperature
Clouds and Precipitation
Forecast for 2016-12-10 12:00 UTC. Updated an hour ago
Winds

PKMJ

Details ICAO PKMJ (MAJ)
Name MARSHALL ISLANDS INTL
Region Marshall Islands
Timezone Pacific/Majuro (UTC+12.0)
Stats Elevation 6 ft / 2 m (AMSL)
Location 7.064760° 171.272023°
Runways 1
Magnetic Variation 8.411° E

METAR

Not found

TAF

TAF PKMJ 101120Z 1012/1112 08010KT P6SM VCSH SCT016 SCT040 BKN120 TEMPO 1012/1015 6SM -SHRA SCT014 BKN030

Decode

Departure Runways

ID Width Length Bearing (true) Bearing (mag) Surface Threshold Offset Overrun Length
07 150 ft / 46 m 7,898 ft / 2,407 m 76.08° 67.67° Asphalt 0 ft / 0 m 200 ft / 61 m
25 150 ft / 46 m 7,898 ft / 2,407 m 256.08° 247.67° Asphalt 0 ft / 0 m 200 ft / 61 m

PKWA

Details ICAO PKWA (KWA)
Name BUCHOLZ AAF
Region Marshall Islands
Timezone Pacific/Kwajalein (UTC+12.0)
Stats Elevation 9 ft / 3 m (AMSL)
Location 8.720121° 167.731662°
Runways 1
Magnetic Variation 7.610° E

METAR

PKWA 101200Z AUTO 09017G20KT 10SM SCT018 SCT025 BKN046 27/25 A2982 RMK AO2 T02660250

Decode

TAF

TAF PKWA 101120Z 1012/1112 08015KT P6SM VCSH SCT018 SCT040 BKN100 TEMPO 1012/1016 09015G25KT 5SM SHRA SCT015 BKN030

Decode

Destination Runways

ID Width Length Bearing (true) Bearing (mag) Surface Threshold Offset Overrun Length
06 198 ft / 60 m 6,666 ft / 2,032 m 72.67° 65.06° Asphalt 0 ft / 0 m 0 ft / 0 m
24 198 ft / 60 m 6,666 ft / 2,032 m 252.67° 245.06° Asphalt 0 ft / 0 m 0 ft / 0 m

Popular Alternatives